sensor_id;sensor_type;location;lat;lon;timestamp;pressure;altitude;pressure_sealevel;temperature;humidity
73941;BME280;62294;48.554;10.202;2023-03-14T00:00:31;94757.91;;;7.20;100.00
73941;BME280;62294;48.554;10.202;2023-03-14T00:02:57;94769.97;;;7.27;100.00
73941;BME280;62294;48.554;10.202;2023-03-14T00:05:24;94778.03;;;7.32;100.00
73941;BME280;62294;48.554;10.202;2023-03-14T00:07:51;94800.53;;;7.35;100.00
73941;BME280;62294;48.554;10.202;2023-03-14T00:10:17;94793.41;;;7.35;100.00
73941;BME280;62294;48.554;10.202;2023-03-14T00:12:44;94786.06;;;7.37;100.00
73941;BME280;62294;48.554;10.202;2023-03-14T00:15:12;94796.63;;;7.37;100.00
73941;BME280;62294;48.554;10.202;2023-03-14T00:17:39;94790.06;;;7.40;100.00
73941;BME280;62294;48.554;10.202;2023-03-14T00:20:06;94805.16;;;7.39;100.00
73941;BME280;62294;48.554;10.202;2023-03-14T00:22:38;94821.00;;;7.39;100.00
73941;BME280;62294;48.554;10.202;2023-03-14T00:25:06;94849.84;;;7.41;100.00
73941;BME280;62294;48.554;10.202;2023-03-14T00:27:34;94871.81;;;7.41;100.00
73941;BME280;62294;48.554;10.202;2023-03-14T00:30:01;94870.44;;;7.39;100.00
73941;BME280;62294;48.554;10.202;2023-03-14T00:32:28;94848.22;;;7.40;100.00
73941;BME280;62294;48.554;10.202;2023-03-14T00:34:55;94867.78;;;7.39;100.00
73941;BME280;62294;48.554;10.202;2023-03-14T00:37:22;94841.47;;;7.32;100.00
73941;BME280;62294;48.554;10.202;2023-03-14T00:39:51;94811.44;;;7.27;100.00
73941;BME280;62294;48.554;10.202;2023-03-14T00:42:17;94794.09;;;7.19;100.00
73941;BME280;62294;48.554;10.202;2023-03-14T00:44:44;94778.34;;;7.12;100.00
73941;BME280;62294;48.554;10.202;2023-03-14T00:47:11;94753.09;;;7.05;100.00
73941;BME280;62294;48.554;10.202;2023-03-14T00:49:37;94733.09;;;6.97;100.00
73941;BME280;62294;48.554;10.202;2023-03-14T00:52:04;94724.59;;;6.95;100.00
73941;BME280;62294;48.554;10.202;2023-03-14T00:54:31;94702.28;;;6.91;100.00
73941;BME280;62294;48.554;10.202;2023-03-14T00:56:57;94680.00;;;6.87;100.00
73941;BME280;62294;48.554;10.202;2023-03-14T00:59:24;94658.88;;;6.87;100.00
73941;BME280;62294;48.554;10.202;2023-03-14T01:01:50;94657.28;;;6.86;100.00
73941;BME280;62294;48.554;10.202;2023-03-14T01:04:17;94611.59;;;6.86;100.00
73941;BME280;62294;48.554;10.202;2023-03-14T01:06:43;94566.59;;;6.81;100.00
73941;BME280;62294;48.554;10.202;2023-03-14T01:09:10;94561.53;;;6.79;100.00
73941;BME280;62294;48.554;10.202;2023-03-14T01:11:37;94540.06;;;6.76;100.00
73941;BME280;62294;48.554;10.202;2023-03-14T01:14:04;94528.13;;;6.73;100.00
73941;BME280;62294;48.554;10.202;2023-03-14T01:16:32;94547.09;;;6.70;100.00
73941;BME280;62294;48.554;10.202;2023-03-14T01:18:59;94555.00;;;6.70;100.00
73941;BME280;62294;48.554;10.202;2023-03-14T01:21:30;94581.63;;;6.69;100.00
73941;BME280;62294;48.554;10.202;2023-03-14T01:23:58;94590.47;;;6.74;100.00
73941;BME280;62294;48.554;10.202;2023-03-14T01:26:26;94590.03;;;6.77;100.00
73941;BME280;62294;48.554;10.202;2023-03-14T01:28:54;94568.31;;;6.75;100.00
73941;BME280;62294;48.554;10.202;2023-03-14T01:31:23;94565.69;;;6.75;100.00
73941;BME280;62294;48.554;10.202;2023-03-14T01:33:50;94568.31;;;6.75;100.00
73941;BME280;62294;48.554;10.202;2023-03-14T01:36:17;94569.34;;;6.74;100.00
73941;BME280;62294;48.554;10.202;2023-03-14T01:38:44;94572.00;;;6.74;100.00
73941;BME280;62294;48.554;10.202;2023-03-14T01:41:21;94567.63;;;6.80;100.00
73941;BME280;62294;48.554;10.202;2023-03-14T01:43:49;94546.50;;;6.80;100.00
73941;BME280;62294;48.554;10.202;2023-03-14T01:48:50;94548.09;;;6.81;100.00
73941;BME280;62294;48.554;10.202;2023-03-14T01:51:27;94544.19;;;6.83;100.00
73941;BME280;62294;48.554;10.202;2023-03-14T01:54:02;94533.19;;;6.86;100.00
73941;BME280;62294;48.554;10.202;2023-03-14T01:56:32;94526.84;;;6.87;100.00
73941;BME280;62294;48.554;10.202;2023-03-14T01:59:00;94529.72;;;6.86;100.00
73941;BME280;62294;48.554;10.202;2023-03-14T02:01:29;94517.53;;;6.85;100.00
73941;BME280;62294;48.554;10.202;2023-03-14T02:03:59;94517.34;;;6.86;100.00
73941;BME280;62294;48.554;10.202;2023-03-14T02:06:33;94504.59;;;6.83;100.00
73941;BME280;62294;48.554;10.202;2023-03-14T02:09:02;94499.31;;;6.83;100.00
73941;BME280;62294;48.554;10.202;2023-03-14T02:11:31;94490.81;;;6.81;100.00
73941;BME280;62294;48.554;10.202;2023-03-14T02:13:58;94490.81;;;6.81;100.00
73941;BME280;62294;48.554;10.202;2023-03-14T02:16:26;94485.19;;;6.78;100.00
73941;BME280;62294;48.554;10.202;2023-03-14T02:18:53;94482.22;;;6.74;100.00
73941;BME280;62294;48.554;10.202;2023-03-14T02:21:38;94488.53;;;6.73;100.00
73941;BME280;62294;48.554;10.202;2023-03-14T02:24:17;94480.59;;;6.73;100.00
73941;BME280;62294;48.554;10.202;2023-03-14T02:27:14;94480.94;;;6.77;100.00
73941;BME280;62294;48.554;10.202;2023-03-14T02:29:50;94478.31;;;6.77;100.00
73941;BME280;62294;48.554;10.202;2023-03-14T02:32:21;94472.34;;;6.81;100.00
73941;BME280;62294;48.554;10.202;2023-03-14T02:34:54;94462.78;;;6.80;100.00
73941;BME280;62294;48.554;10.202;2023-03-14T02:37:24;94464.41;;;6.81;100.00
73941;BME280;62294;48.554;10.202;2023-03-14T02:39:52;94452.22;;;6.80;100.00
73941;BME280;62294;48.554;10.202;2023-03-14T02:42:19;94436.03;;;6.88;100.00
73941;BME280;62294;48.554;10.202;2023-03-14T02:47:39;94407.44;;;6.85;100.00
73941;BME280;62294;48.554;10.202;2023-03-14T02:50:21;94386.56;;;6.84;100.00
73941;BME280;62294;48.554;10.202;2023-03-14T02:52:50;94364.31;;;6.80;100.00
73941;BME280;62294;48.554;10.202;2023-03-14T02:55:23;94356.63;;;6.78;100.00
73941;BME280;62294;48.554;10.202;2023-03-14T02:57:51;94365.59;;;6.77;100.00
73941;BME280;62294;48.554;10.202;2023-03-14T03:00:17;94365.66;;;6.82;100.00
73941;BME280;62294;48.554;10.202;2023-03-14T03:02:45;94356.25;;;6.86;100.00
73941;BME280;62294;48.554;10.202;2023-03-14T03:05:12;94344.06;;;6.85;100.00
73941;BME280;62294;48.554;10.202;2023-03-14T03:07:38;94327.75;;;6.88;100.00
73941;BME280;62294;48.554;10.202;2023-03-14T03:10:05;94322.31;;;6.95;100.00
73941;BME280;62294;48.554;10.202;2023-03-14T03:12:32;94297.84;;;6.99;100.00
73941;BME280;62294;48.554;10.202;2023-03-14T03:14:59;94267.66;;;6.95;100.00
73941;BME280;62294;48.554;10.202;2023-03-14T03:17:25;94246.03;;;6.98;100.00
73941;BME280;62294;48.554;10.202;2023-03-14T03:19:52;94229.63;;;6.96;100.00
73941;BME280;62294;48.554;10.202;2023-03-14T03:22:19;94217.41;;;6.90;100.00
73941;BME280;62294;48.554;10.202;2023-03-14T03:24:45;94201.81;;;6.89;100.00
73941;BME280;62294;48.554;10.202;2023-03-14T03:27:11;94179.38;;;6.91;100.00
73941;BME280;62294;48.554;10.202;2023-03-14T03:29:39;94175.06;;;6.85;100.00
73941;BME280;62294;48.554;10.202;2023-03-14T03:32:05;94162.94;;;6.84;100.00
73941;BME280;62294;48.554;10.202;2023-03-14T03:34:31;94154.75;;;6.86;100.00
73941;BME280;62294;48.554;10.202;2023-03-14T03:36:58;94150.03;;;6.88;100.00
73941;BME280;62294;48.554;10.202;2023-03-14T03:39:25;94134.09;;;6.83;100.00
73941;BME280;62294;48.554;10.202;2023-03-14T03:41:51;94128.03;;;6.82;100.00
73941;BME280;62294;48.554;10.202;2023-03-14T03:44:18;94122.13;;;6.75;100.00
73941;BME280;62294;48.554;10.202;2023-03-14T03:46:44;94106.78;;;6.72;100.00
73941;BME280;62294;48.554;10.202;2023-03-14T03:49:11;94078.53;;;6.73;100.00
73941;BME280;62294;48.554;10.202;2023-03-14T03:51:39;94072.94;;;6.69;100.00
73941;BME280;62294;48.554;10.202;2023-03-14T03:54:06;94085.09;;;6.70;100.00
73941;BME280;62294;48.554;10.202;2023-03-14T03:56:32;94093.50;;;6.67;100.00
73941;BME280;62294;48.554;10.202;2023-03-14T03:58:59;94085.50;;;6.62;100.00
73941;BME280;62294;48.554;10.202;2023-03-14T04:01:25;94106.06;;;6.60;100.00
73941;BME280;62294;48.554;10.202;2023-03-14T04:03:52;94104.69;;;6.58;100.00
73941;BME280;62294;48.554;10.202;2023-03-14T04:06:19;94118.22;;;6.61;100.00
73941;BME280;62294;48.554;10.202;2023-03-14T04:08:46;94117.50;;;6.66;100.00
73941;BME280;62294;48.554;10.202;2023-03-14T04:11:12;94130.38;;;6.62;100.00
73941;BME280;62294;48.554;10.202;2023-03-14T04:13:40;94127.97;;;6.61;100.00
73941;BME280;62294;48.554;10.202;2023-03-14T04:16:16;94122.63;;;6.56;100.00
73941;BME280;62294;48.554;10.202;2023-03-14T04:18:43;94131.50;;;6.50;100.00
73941;BME280;62294;48.554;10.202;2023-03-14T04:21:10;94143.81;;;6.44;100.00
73941;BME280;62294;48.554;10.202;2023-03-14T04:23:36;94148.88;;;6.46;100.00
73941;BME280;62294;48.554;10.202;2023-03-14T04:26:03;94143.34;;;6.47;100.00
73941;BME280;62294;48.554;10.202;2023-03-14T04:28:30;94146.94;;;6.41;100.00
73941;BME280;62294;48.554;10.202;2023-03-14T04:30:56;94147.50;;;6.43;100.00
73941;BME280;62294;48.554;10.202;2023-03-14T04:33:23;94134.31;;;6.43;100.00
73941;BME280;62294;48.554;10.202;2023-03-14T04:35:53;94140.69;;;6.47;100.00
73941;BME280;62294;48.554;10.202;2023-03-14T04:38:20;94138.63;;;6.49;100.00
73941;BME280;62294;48.554;10.202;2023-03-14T04:40:47;94127.25;;;6.49;100.00
73941;BME280;62294;48.554;10.202;2023-03-14T04:43:13;94115.41;;;6.51;100.00
73941;BME280;62294;48.554;10.202;2023-03-14T04:45:43;94112.06;;;6.56;100.00
73941;BME280;62294;48.554;10.202;2023-03-14T04:48:11;94089.09;;;6.56;100.00
73941;BME280;62294;48.554;10.202;2023-03-14T04:50:39;94075.44;;;6.59;100.00
73941;BME280;62294;48.554;10.202;2023-03-14T04:53:05;94054.88;;;6.61;100.00
73941;BME280;62294;48.554;10.202;2023-03-14T04:55:33;94031.03;;;6.56;100.00
73941;BME280;62294;48.554;10.202;2023-03-14T04:58:00;94004.72;;;6.61;100.00
73941;BME280;62294;48.554;10.202;2023-03-14T05:00:27;93979.63;;;6.59;100.00
73941;BME280;62294;48.554;10.202;2023-03-14T05:02:54;93956.91;;;6.58;100.00
73941;BME280;62294;48.554;10.202;2023-03-14T05:05:20;93935.50;;;6.54;100.00
73941;BME280;62294;48.554;10.202;2023-03-14T05:07:47;93921.75;;;6.52;100.00
73941;BME280;62294;48.554;10.202;2023-03-14T05:10:14;93898.72;;;6.48;100.00
73941;BME280;62294;48.554;10.202;2023-03-14T05:12:40;93882.38;;;6.51;100.00
73941;BME280;62294;48.554;10.202;2023-03-14T05:15:07;93849.09;;;6.44;100.00
73941;BME280;62294;48.554;10.202;2023-03-14T05:17:35;93831.91;;;6.42;100.00
73941;BME280;62294;48.554;10.202;2023-03-14T05:20:02;93820.06;;;6.44;100.00
73941;BME280;62294;48.554;10.202;2023-03-14T05:22:34;93803.41;;;6.44;100.00
73941;BME280;62294;48.554;10.202;2023-03-14T05:25:01;93787.78;;;6.37;100.00
73941;BME280;62294;48.554;10.202;2023-03-14T05:27:27;93780.94;;;6.36;100.00
73941;BME280;62294;48.554;10.202;2023-03-14T05:29:53;93777.69;;;6.29;100.00
73941;BME280;62294;48.554;10.202;2023-03-14T05:32:20;93762.34;;;6.26;100.00
73941;BME280;62294;48.554;10.202;2023-03-14T05:34:47;93749.22;;;6.31;100.00
73941;BME280;62294;48.554;10.202;2023-03-14T05:37:13;93742.06;;;6.27;100.00
73941;BME280;62294;48.554;10.202;2023-03-14T05:39:40;93733.03;;;6.23;100.00
73941;BME280;62294;48.554;10.202;2023-03-14T05:42:07;93726.72;;;6.24;100.00
73941;BME280;62294;48.554;10.202;2023-03-14T05:44:33;93724.88;;;6.24;100.00
73941;BME280;62294;48.554;10.202;2023-03-14T05:47:01;93704.38;;;6.31;100.00
73941;BME280;62294;48.554;10.202;2023-03-14T05:49:28;93703.56;;;6.31;100.00
73941;BME280;62294;48.554;10.202;2023-03-14T05:51:54;93691.41;;;6.30;100.00
73941;BME280;62294;48.554;10.202;2023-03-14T05:54:21;93670.63;;;6.33;100.00
73941;BME280;62294;48.554;10.202;2023-03-14T05:56:48;93657.19;;;6.35;100.00
73941;BME280;62294;48.554;10.202;2023-03-14T05:59:14;93648.97;;;6.31;100.00
73941;BME280;62294;48.554;10.202;2023-03-14T06:01:41;93642.91;;;6.31;100.00
73941;BME280;62294;48.554;10.202;2023-03-14T06:04:08;93645.53;;;6.31;100.00
73941;BME280;62294;48.554;10.202;2023-03-14T06:06:34;93638.66;;;6.30;100.00
73941;BME280;62294;48.554;10.202;2023-03-14T06:09:01;93633.09;;;6.26;100.00
73941;BME280;62294;48.554;10.202;2023-03-14T06:11:27;93624.94;;;6.28;100.00
73941;BME280;62294;48.554;10.202;2023-03-14T06:13:54;93617.78;;;6.23;100.00
73941;BME280;62294;48.554;10.202;2023-03-14T06:16:22;93595.69;;;6.29;100.00
73941;BME280;62294;48.554;10.202;2023-03-14T06:18:49;93605.94;;;6.26;100.00
73941;BME280;62294;48.554;10.202;2023-03-14T06:21:15;93599.34;;;6.28;100.00
73941;BME280;62294;48.554;10.202;2023-03-14T06:23:44;93585.91;;;6.30;100.00
73941;BME280;62294;48.554;10.202;2023-03-14T06:26:11;93566.94;;;6.33;100.00
73941;BME280;62294;48.554;10.202;2023-03-14T06:28:38;93570.66;;;6.32;100.00
73941;BME280;62294;48.554;10.202;2023-03-14T06:31:05;93558.50;;;6.31;100.00
73941;BME280;62294;48.554;10.202;2023-03-14T06:33:32;93569.59;;;6.33;100.00
73941;BME280;62294;48.554;10.202;2023-03-14T06:35:58;93560.09;;;6.32;100.00
73941;BME280;62294;48.554;10.202;2023-03-14T06:38:26;93558.50;;;6.31;100.00
73941;BME280;62294;48.554;10.202;2023-03-14T06:40:52;93566.69;;;6.34;100.00
73941;BME280;62294;48.554;10.202;2023-03-14T06:43:19;93562.22;;;6.35;100.00
73941;BME280;62294;48.554;10.202;2023-03-14T06:45:45;93567.00;;;6.38;100.00
73941;BME280;62294;48.554;10.202;2023-03-14T06:48:12;93562.81;;;6.47;100.00
73941;BME280;62294;48.554;10.202;2023-03-14T06:50:38;93549.34;;;6.43;100.00
73941;BME280;62294;48.554;10.202;2023-03-14T06:53:05;93557.00;;;6.45;100.00
73941;BME280;62294;48.554;10.202;2023-03-14T06:55:31;93539.09;;;6.47;100.00
73941;BME280;62294;48.554;10.202;2023-03-14T06:57:58;93529.81;;;6.44;100.00
73941;BME280;62294;48.554;10.202;2023-03-14T07:00:25;93519.78;;;6.41;100.00
73941;BME280;62294;48.554;10.202;2023-03-14T07:02:51;93535.38;;;6.43;100.00
73941;BME280;62294;48.554;10.202;2023-03-14T07:05:18;93532.19;;;6.46;100.00
73941;BME280;62294;48.554;10.202;2023-03-14T07:07:44;93538.78;;;6.43;100.00
73941;BME280;62294;48.554;10.202;2023-03-14T07:10:11;93547.00;;;6.47;100.00
73941;BME280;62294;48.554;10.202;2023-03-14T07:12:38;93550.44;;;6.53;100.00
73941;BME280;62294;48.554;10.202;2023-03-14T07:15:05;93541.50;;;6.54;100.00
73941;BME280;62294;48.554;10.202;2023-03-14T07:17:51;93538.06;;;6.53;100.00
73941;BME280;62294;48.554;10.202;2023-03-14T07:20:19;93537.06;;;6.59;100.00
73941;BME280;62294;48.554;10.202;2023-03-14T07:22:49;93532.84;;;6.63;100.00
73941;BME280;62294;48.554;10.202;2023-03-14T07:25:17;93530.25;;;6.68;100.00
73941;BME280;62294;48.554;10.202;2023-03-14T07:27:44;93527.63;;;6.78;100.00
73941;BME280;62294;48.554;10.202;2023-03-14T07:30:12;93519.22;;;6.81;100.00
73941;BME280;62294;48.554;10.202;2023-03-14T07:32:38;93506.06;;;6.96;100.00
73941;BME280;62294;48.554;10.202;2023-03-14T07:35:06;93499.00;;;7.12;100.00
73941;BME280;62294;48.554;10.202;2023-03-14T07:37:32;93493.97;;;7.05;100.00
73941;BME280;62294;48.554;10.202;2023-03-14T07:39:59;93471.22;;;6.99;100.00
73941;BME280;62294;48.554;10.202;2023-03-14T07:42:26;93460.69;;;7.04;100.00
73941;BME280;62294;48.554;10.202;2023-03-14T07:44:52;93459.41;;;7.17;100.00
73941;BME280;62294;48.554;10.202;2023-03-14T07:47:19;93445.38;;;7.16;100.00
73941;BME280;62294;48.554;10.202;2023-03-14T07:49:46;93433.25;;;7.31;100.00
73941;BME280;62294;48.554;10.202;2023-03-14T07:52:12;93434.88;;;7.32;100.00
73941;BME280;62294;48.554;10.202;2023-03-14T07:54:39;93422.19;;;7.34;100.00
73941;BME280;62294;48.554;10.202;2023-03-14T07:57:06;93409.25;;;7.42;100.00
73941;BME280;62294;48.554;10.202;2023-03-14T07:59:32;93400.50;;;7.67;100.00
73941;BME280;62294;48.554;10.202;2023-03-14T08:01:59;93392.59;;;7.82;100.00
73941;BME280;62294;48.554;10.202;2023-03-14T08:04:26;93384.13;;;7.90;100.00
73941;BME280;62294;48.554;10.202;2023-03-14T08:06:53;93394.16;;;7.83;100.00
73941;BME280;62294;48.554;10.202;2023-03-14T08:09:20;93387.28;;;7.92;100.00
73941;BME280;62294;48.554;10.202;2023-03-14T08:11:47;93376.69;;;8.02;100.00
73941;BME280;62294;48.554;10.202;2023-03-14T08:14:13;93366.34;;;8.16;100.00
73941;BME280;62294;48.554;10.202;2023-03-14T08:16:40;93358.69;;;8.04;100.00
73941;BME280;62294;48.554;10.202;2023-03-14T08:19:07;93346.50;;;8.08;100.00
73941;BME280;62294;48.554;10.202;2023-03-14T08:21:33;93350.72;;;8.29;100.00
73941;BME280;62294;48.554;10.202;2023-03-14T08:24:00;93332.06;;;8.60;100.00
73941;BME280;62294;48.554;10.202;2023-03-14T08:26:27;93332.69;;;8.36;100.00
73941;BME280;62294;48.554;10.202;2023-03-14T08:28:54;93325.06;;;8.30;100.00
73941;BME280;62294;48.554;10.202;2023-03-14T08:31:20;93329.03;;;8.32;100.00
73941;BME280;62294;48.554;10.202;2023-03-14T08:33:47;93325.81;;;8.40;100.00
73941;BME280;62294;48.554;10.202;2023-03-14T08:36:14;93323.88;;;8.56;100.00
73941;BME280;62294;48.554;10.202;2023-03-14T08:38:40;93303.94;;;8.74;100.00
73941;BME280;62294;48.554;10.202;2023-03-14T08:41:09;93301.66;;;9.01;100.00
73941;BME280;62294;48.554;10.202;2023-03-14T08:43:36;93296.75;;;9.18;100.00
73941;BME280;62294;48.554;10.202;2023-03-14T08:46:03;93274.88;;;9.88;100.00
73941;BME280;62294;48.554;10.202;2023-03-14T08:48:30;93236.78;;;10.27;100.00
73941;BME280;62294;48.554;10.202;2023-03-14T08:51:04;93248.84;;;9.90;100.00
73941;BME280;62294;48.554;10.202;2023-03-14T08:53:31;93253.16;;;9.63;100.00
73941;BME280;62294;48.554;10.202;2023-03-14T08:55:57;93273.00;;;9.65;100.00
73941;BME280;62294;48.554;10.202;2023-03-14T08:58:24;93264.44;;;9.73;100.00
73941;BME280;62294;48.554;10.202;2023-03-14T09:00:51;93264.53;;;9.63;100.00
73941;BME280;62294;48.554;10.202;2023-03-14T09:03:17;93269.13;;;9.81;100.00
73941;BME280;62294;48.554;10.202;2023-03-14T09:05:44;93275.50;;;9.80;100.00
73941;BME280;62294;48.554;10.202;2023-03-14T09:08:11;93264.47;;;10.21;100.00
73941;BME280;62294;48.554;10.202;2023-03-14T09:10:37;93296.56;;;9.95;100.00
73941;BME280;62294;48.554;10.202;2023-03-14T09:13:04;93290.59;;;10.32;100.00
73941;BME280;62294;48.554;10.202;2023-03-14T09:15:32;93311.38;;;10.49;100.00
73941;BME280;62294;48.554;10.202;2023-03-14T09:17:59;93330.88;;;10.39;100.00
73941;BME280;62294;48.554;10.202;2023-03-14T09:20:25;93330.88;;;10.63;100.00
73941;BME280;62294;48.554;10.202;2023-03-14T09:22:53;93362.06;;;10.52;100.00
73941;BME280;62294;48.554;10.202;2023-03-14T09:25:20;93362.94;;;10.90;100.00
73941;BME280;62294;48.554;10.202;2023-03-14T09:27:46;93385.00;;;10.67;100.00
73941;BME280;62294;48.554;10.202;2023-03-14T09:30:14;93377.16;;;11.36;100.00
73941;BME280;62294;48.554;10.202;2023-03-14T09:32:40;93393.22;;;10.65;100.00
73941;BME280;62294;48.554;10.202;2023-03-14T09:35:07;93397.31;;;11.43;100.00
73941;BME280;62294;48.554;10.202;2023-03-14T09:37:34;93418.91;;;10.75;100.00
73941;BME280;62294;48.554;10.202;2023-03-14T09:40:00;93408.03;;;10.48;100.00
73941;BME280;62294;48.554;10.202;2023-03-14T09:42:32;93420.59;;;10.90;100.00
73941;BME280;62294;48.554;10.202;2023-03-14T09:45:01;93408.50;;;11.39;100.00
73941;BME280;62294;48.554;10.202;2023-03-14T09:47:29;93410.94;;;11.55;100.00
73941;BME280;62294;48.554;10.202;2023-03-14T09:49:56;93423.38;;;11.59;100.00
73941;BME280;62294;48.554;10.202;2023-03-14T09:52:30;93442.34;;;10.92;100.00
73941;BME280;62294;48.554;10.202;2023-03-14T09:55:12;93441.72;;;11.61;100.00
73941;BME280;62294;48.554;10.202;2023-03-14T09:57:41;93436.41;;;11.61;100.00
73941;BME280;62294;48.554;10.202;2023-03-14T10:00:15;93437.66;;;12.33;100.00
73941;BME280;62294;48.554;10.202;2023-03-14T10:02:50;93458.53;;;12.12;100.00
73941;BME280;62294;48.554;10.202;2023-03-14T10:05:19;93472.69;;;12.72;100.00
73941;BME280;62294;48.554;10.202;2023-03-14T10:07:49;93480.13;;;13.57;100.00
73941;BME280;62294;48.554;10.202;2023-03-14T10:10:19;93528.19;;;12.51;100.00
73941;BME280;62294;48.554;10.202;2023-03-14T10:12:55;93531.66;;;11.59;100.00
73941;BME280;62294;48.554;10.202;2023-03-14T10:15:30;93523.91;;;11.38;100.00
73941;BME280;62294;48.554;10.202;2023-03-14T10:18:00;93508.28;;;11.13;100.00
73941;BME280;62294;48.554;10.202;2023-03-14T10:20:31;93516.63;;;10.78;100.00
73941;BME280;62294;48.554;10.202;2023-03-14T10:25:33;93520.09;;;10.50;100.00
73941;BME280;62294;48.554;10.202;2023-03-14T10:28:04;93509.97;;;10.52;100.00
73941;BME280;62294;48.554;10.202;2023-03-14T10:30:40;93508.56;;;10.88;100.00
73941;BME280;62294;48.554;10.202;2023-03-14T10:33:28;93501.63;;;10.63;100.00
73941;BME280;62294;48.554;10.202;2023-03-14T10:36:02;93498.63;;;10.99;100.00
73941;BME280;62294;48.554;10.202;2023-03-14T10:38:35;93499.88;;;11.06;100.00
73941;BME280;62294;48.554;10.202;2023-03-14T10:41:26;93489.22;;;11.49;100.00
73941;BME280;62294;48.554;10.202;2023-03-14T10:44:12;93474.44;;;12.63;100.00
73941;BME280;62294;48.554;10.202;2023-03-14T10:46:39;93468.25;;;12.95;100.00
73941;BME280;62294;48.554;10.202;2023-03-14T10:49:06;93484.31;;;12.62;100.00
73941;BME280;62294;48.554;10.202;2023-03-14T10:51:33;93504.09;;;11.92;100.00
73941;BME280;62294;48.554;10.202;2023-03-14T10:54:02;93517.63;;;11.11;100.00
73941;BME280;62294;48.554;10.202;2023-03-14T10:56:36;93523.84;;;11.01;100.00
73941;BME280;62294;48.554;10.202;2023-03-14T10:59:07;93533.56;;;10.87;100.00
73941;BME280;62294;48.554;10.202;2023-03-14T11:07:44;93569.72;;;11.35;100.00
73941;BME280;62294;48.554;10.202;2023-03-14T11:10:34;93565.72;;;11.09;100.00
73941;BME280;62294;48.554;10.202;2023-03-14T11:13:15;93605.94;;;11.03;100.00
73941;BME280;62294;48.554;10.202;2023-03-14T11:27:18;93619.88;;;12.13;100.00
73941;BME280;62294;48.554;10.202;2023-03-14T11:32:14;93630.31;;;12.98;100.00
73941;BME280;62294;48.554;10.202;2023-03-14T11:34:54;93648.78;;;12.01;100.00
73941;BME280;62294;48.554;10.202;2023-03-14T11:37:29;93637.38;;;11.77;100.00
73941;BME280;62294;48.554;10.202;2023-03-14T11:40:10;93638.59;;;11.61;100.00
73941;BME280;62294;48.554;10.202;2023-03-14T11:42:43;93641.50;;;11.59;100.00
73941;BME280;62294;48.554;10.202;2023-03-14T11:45:24;93643.81;;;11.71;100.00
73941;BME280;62294;48.554;10.202;2023-03-14T11:50:35;93629.50;;;11.14;100.00
73941;BME280;62294;48.554;10.202;2023-03-14T11:53:34;93635.94;;;11.08;100.00
73941;BME280;62294;48.554;10.202;2023-03-14T11:56:02;93637.16;;;10.92;100.00
73941;BME280;62294;48.554;10.202;2023-03-14T11:58:33;93633.06;;;11.00;100.00
73941;BME280;62294;48.554;10.202;2023-03-14T12:01:08;93648.53;;;11.26;100.00
73941;BME280;62294;48.554;10.202;2023-03-14T12:03:52;93649.13;;;11.18;100.00
73941;BME280;62294;48.554;10.202;2023-03-14T12:06:56;93649.88;;;11.24;100.00
73941;BME280;62294;48.554;10.202;2023-03-14T12:09:18;93652.66;;;10.80;100.00
73941;BME280;62294;48.554;10.202;2023-03-14T12:11:55;93653.25;;;10.72;100.00
73941;BME280;62294;48.554;10.202;2023-03-14T12:14:26;93657.03;;;10.61;100.00
73941;BME280;62294;48.554;10.202;2023-03-14T12:19:38;93657.44;;;10.78;100.00
73941;BME280;62294;48.554;10.202;2023-03-14T12:24:34;93670.91;;;10.87;100.00
73941;BME280;62294;48.554;10.202;2023-03-14T12:27:04;93667.66;;;10.61;100.00
73941;BME280;62294;48.554;10.202;2023-03-14T12:29:32;93675.16;;;10.93;100.00
73941;BME280;62294;48.554;10.202;2023-03-14T12:32:22;93677.19;;;10.67;100.00
73941;BME280;62294;48.554;10.202;2023-03-14T12:34:50;93671.88;;;10.23;100.00
73941;BME280;62294;48.554;10.202;2023-03-14T12:37:44;93676.03;;;9.85;100.00
73941;BME280;62294;48.554;10.202;2023-03-14T12:40:21;93678.22;;;9.68;100.00
73941;BME280;62294;48.554;10.202;2023-03-14T12:43:00;93690.47;;;9.44;100.00
73941;BME280;62294;48.554;10.202;2023-03-14T12:50:46;93715.72;;;9.21;100.00
73941;BME280;62294;48.554;10.202;2023-03-14T12:53:50;93717.03;;;9.04;100.00
73941;BME280;62294;48.554;10.202;2023-03-14T12:56:23;93742.44;;;8.75;100.00
73941;BME280;62294;48.554;10.202;2023-03-14T13:01:26;93657.69;;;8.49;100.00
73941;BME280;62294;48.554;10.202;2023-03-14T13:03:57;93610.56;;;8.77;100.00
73941;BME280;62294;48.554;10.202;2023-03-14T13:06:52;93610.84;;;8.40;100.00
73941;BME280;62294;48.554;10.202;2023-03-14T13:12:13;93644.97;;;8.31;100.00
73941;BME280;62294;48.554;10.202;2023-03-14T13:14:45;93650.50;;;8.25;100.00
73941;BME280;62294;48.554;10.202;2023-03-14T13:17:15;93673.50;;;8.19;100.00
73941;BME280;62294;48.554;10.202;2023-03-14T13:20:18;93716.84;;;8.03;100.00
73941;BME280;62294;48.554;10.202;2023-03-14T13:22:49;93744.38;;;8.07;100.00
73941;BME280;62294;48.554;10.202;2023-03-14T13:25:16;93779.78;;;7.96;100.00
73941;BME280;62294;48.554;10.202;2023-03-14T13:27:47;93831.59;;;7.92;100.00
73941;BME280;62294;48.554;10.202;2023-03-14T13:30:21;93826.66;;;7.64;100.00
73941;BME280;62294;48.554;10.202;2023-03-14T13:32:49;93815.34;;;7.32;100.00
73941;BME280;62294;48.554;10.202;2023-03-14T13:35:17;93834.97;;;7.41;100.00
73941;BME280;62294;48.554;10.202;2023-03-14T13:37:44;93849.28;;;7.50;100.00
73941;BME280;62294;48.554;10.202;2023-03-14T13:40:19;93856.75;;;7.58;100.00
73941;BME280;62294;48.554;10.202;2023-03-14T13:42:47;93832.22;;;7.67;100.00
73941;BME280;62294;48.554;10.202;2023-03-14T13:45:14;93819.41;;;7.86;100.00